createdAt,value
2019-04-10T00:01:53.700Z,26.30
2019-04-10T00:04:43.247Z,24.37
2019-04-10T00:07:33.218Z,25.60
2019-04-10T00:10:22.340Z,27.50
2019-04-10T00:13:12.131Z,23.70
2019-04-10T00:16:00.997Z,26.63
2019-04-10T00:18:50.543Z,22.90
2019-04-10T00:21:39.800Z,23.23
2019-04-10T00:24:30.179Z,23.33
2019-04-10T00:27:19.304Z,24.10
2019-04-10T00:30:09.259Z,23.90
2019-04-10T00:32:58.580Z,25.67
2019-04-10T00:35:47.733Z,24.20
2019-04-10T00:38:36.534Z,25.80
2019-04-10T00:41:25.736Z,25.23
2019-04-10T00:44:15.309Z,21.53
2019-04-10T00:47:04.514Z,24.17
2019-04-10T00:49:53.789Z,25.93
2019-04-10T00:52:42.743Z,24.33
2019-04-10T00:55:32.111Z,22.23
2019-04-10T00:58:20.905Z,26.60
2019-04-10T01:01:09.681Z,23.00
2019-04-10T01:04:00.217Z,25.40
2019-04-10T01:06:50.391Z,23.30
2019-04-10T01:09:39.675Z,27.30
2019-04-10T01:12:28.282Z,23.93
2019-04-10T01:15:16.990Z,24.67
2019-04-10T01:18:06.816Z,28.13
2019-04-10T01:20:56.343Z,24.43
2019-04-10T01:23:45.028Z,20.60
2019-04-10T01:26:34.933Z,22.63
2019-04-10T01:29:25.117Z,21.40
2019-04-10T01:32:01.720Z,23.30
2019-04-10T01:34:51.757Z,23.33
2019-04-10T01:37:49.435Z,21.70
2019-04-10T01:40:30.958Z,21.37
2019-04-10T01:43:22.495Z,21.90
2019-04-10T01:46:11.797Z,21.50
2019-04-10T01:49:00.245Z,21.40
2019-04-10T01:51:49.737Z,20.73
2019-04-10T01:54:39.581Z,24.73
2019-04-10T01:57:22.706Z,24.07
2019-04-10T02:00:15.245Z,20.73
2019-04-10T02:03:05.585Z,22.90
2019-04-10T02:05:54.875Z,19.23
2019-04-10T02:08:43.105Z,23.37
2019-04-10T02:11:32.287Z,19.50
2019-04-10T02:14:22.429Z,18.53
2019-04-10T02:17:12.603Z,19.33
2019-04-10T02:20:01.439Z,20.40
2019-04-10T02:22:50.521Z,23.30
2019-04-10T02:25:39.612Z,21.20
2019-04-10T02:28:29.135Z,21.10
2019-04-10T02:31:19.115Z,19.13
2019-04-10T02:34:09.391Z,21.70
2019-04-10T02:37:00.513Z,19.30
2019-04-10T02:39:52.961Z,20.20
2019-04-10T02:42:41.084Z,22.53
2019-04-10T02:45:30.176Z,19.00
2019-04-10T02:48:19.358Z,23.80
2019-04-10T02:51:09.712Z,20.00
2019-04-10T02:54:00.313Z,20.47
2019-04-10T02:56:43.509Z,20.73
2019-04-10T02:59:33.598Z,20.87
2019-04-10T03:02:23.831Z,20.97
2019-04-10T03:05:13.700Z,21.73
2019-04-10T03:08:04.921Z,21.30
2019-04-10T03:10:59.694Z,16.73
2019-04-10T03:13:45.229Z,17.10
2019-04-10T03:16:35.453Z,15.90
2019-04-10T03:19:25.527Z,19.23
2019-04-10T03:22:14.682Z,18.00
2019-04-10T03:25:04.516Z,20.07
2019-04-10T03:27:54.485Z,18.53
2019-04-10T03:30:44.393Z,16.63
2019-04-10T03:33:50.549Z,19.73
2019-04-10T03:36:40.100Z,17.40
2019-04-10T03:39:32.872Z,17.87
2019-04-10T03:42:21.017Z,17.83
2019-04-10T03:45:11.497Z,17.57
2019-04-10T03:48:00.687Z,19.23
2019-04-10T03:50:50.220Z,21.10
2019-04-10T03:53:38.562Z,18.80
2019-04-10T03:56:27.846Z,20.60
2019-04-10T03:59:16.566Z,20.80
2019-04-10T04:02:05.981Z,20.10
2019-04-10T04:04:55.938Z,19.97
2019-04-10T04:07:44.735Z,19.20
2019-04-10T04:10:34.953Z,23.80
2019-04-10T04:13:24.446Z,19.97
2019-04-10T04:16:14.954Z,19.67
2019-04-10T04:19:05.845Z,22.63
2019-04-10T04:21:56.200Z,18.30
2019-04-10T04:24:46.260Z,21.87
2019-04-10T04:27:35.699Z,22.70
2019-04-10T04:30:25.082Z,22.50
2019-04-10T04:33:13.994Z,19.33
2019-04-10T04:36:02.515Z,16.97
2019-04-10T04:38:51.944Z,19.13
2019-04-10T04:41:40.712Z,21.67
2019-04-10T04:44:31.074Z,23.57
2019-04-10T04:47:20.524Z,20.30
2019-04-10T04:50:09.810Z,22.30
2019-04-10T04:52:58.711Z,19.90
2019-04-10T04:55:47.486Z,22.97
2019-04-10T04:58:38.071Z,22.60
2019-04-10T05:01:08.509Z,21.87
2019-04-10T05:03:58.251Z,21.80
2019-04-10T05:06:47.998Z,20.00
2019-04-10T05:09:39.141Z,24.00
2019-04-10T05:12:27.674Z,20.63
2019-04-10T05:15:16.990Z,21.50
2019-04-10T05:18:06.306Z,22.10
2019-04-10T05:20:54.813Z,22.13
2019-04-10T05:23:43.390Z,20.13
2019-04-10T05:26:32.370Z,21.37
2019-04-10T05:29:21.679Z,29.73
2019-04-10T05:32:11.762Z,24.43
2019-04-10T05:35:03.940Z,21.67
2019-04-10T05:37:51.988Z,22.20
2019-04-10T05:40:22.049Z,22.80
2019-04-10T05:43:11.483Z,20.07
2019-04-10T05:46:01.139Z,22.53
2019-04-10T05:48:52.585Z,24.30
2019-04-10T05:51:41.630Z,23.37
2019-04-10T05:54:31.148Z,21.10
2019-04-10T05:57:20.157Z,22.40
2019-04-10T06:00:12.430Z,32.47
2019-04-10T06:03:01.465Z,18.80
2019-04-10T06:05:50.809Z,22.77
2019-04-10T06:08:41.464Z,21.10
2019-04-10T06:11:31.077Z,20.70
2019-04-10T06:14:20.281Z,25.43
2019-04-10T06:17:09.975Z,22.57
2019-04-10T06:19:59.224Z,20.47
2019-04-10T06:22:44.333Z,20.17
2019-04-10T06:25:36.004Z,18.33
2019-04-10T06:28:25.720Z,20.57
2019-04-10T06:31:14.705Z,20.73
2019-04-10T06:34:04.590Z,22.60
2019-04-10T06:36:53.505Z,22.20
2019-04-10T06:39:44.532Z,24.40
2019-04-10T06:42:43.629Z,20.10
2019-04-10T06:45:23.905Z,22.23
2019-04-10T06:48:13.210Z,22.87
2019-04-10T06:51:02.146Z,21.37
2019-04-10T06:53:33.210Z,23.43
2019-04-10T06:56:22.618Z,22.50
2019-04-10T06:59:12.190Z,17.50
2019-04-10T07:02:13.108Z,21.50
2019-04-10T07:04:55.654Z,18.67
2019-04-10T07:07:50.970Z,18.23
2019-04-10T07:10:42.586Z,19.03
2019-04-10T07:13:22.149Z,21.60
2019-04-10T07:16:11.660Z,19.63
2019-04-10T07:19:04.810Z,21.60
2019-04-10T07:21:52.246Z,22.70
2019-04-10T07:24:42.579Z,16.27
2019-04-10T07:27:35.412Z,17.60
2019-04-10T07:30:26.036Z,18.17
2019-04-10T07:33:16.561Z,20.50
2019-04-10T07:36:07.643Z,18.93
2019-04-10T07:38:55.864Z,22.60
2019-04-10T07:41:45.167Z,20.47
2019-04-10T07:44:34.184Z,22.07
2019-04-10T07:47:23.736Z,17.20
2019-04-10T07:50:14.259Z,23.43
2019-04-10T07:53:04.030Z,18.33
2019-04-10T07:56:01.421Z,22.83
2019-04-10T07:58:43.983Z,18.57
2019-04-10T08:01:33.446Z,17.60
2019-04-10T08:04:22.631Z,19.10
2019-04-10T08:07:24.489Z,23.20
2019-04-10T08:10:03.542Z,26.90
2019-04-10T08:12:54.150Z,24.43
2019-04-10T08:15:43.395Z,17.33
2019-04-10T08:18:32.289Z,20.80
2019-04-10T08:21:21.864Z,21.17
2019-04-10T08:24:12.080Z,19.10
2019-04-10T08:27:01.521Z,19.10
2019-04-10T08:29:52.893Z,20.90
2019-04-10T08:32:53.325Z,21.03
2019-04-10T08:35:33.636Z,21.93
2019-04-10T08:38:22.440Z,23.03
2019-04-10T08:41:12.928Z,21.13
2019-04-10T08:44:02.235Z,21.33
2019-04-10T08:46:50.911Z,24.07
2019-04-10T08:49:39.662Z,19.93
2019-04-10T08:52:28.943Z,23.90
2019-04-10T08:55:18.049Z,21.37
2019-04-10T08:58:06.652Z,17.50
2019-04-10T09:00:56.576Z,26.63
2019-04-10T09:03:46.603Z,20.70
2019-04-10T09:06:35.667Z,22.53
2019-04-10T09:09:25.700Z,23.30
2019-04-10T09:12:15.707Z,23.07
2019-04-10T09:15:07.692Z,25.73
2019-04-10T09:17:57.704Z,19.80
2019-04-10T09:20:46.993Z,24.00
2019-04-10T09:23:44.389Z,19.20
2019-04-10T09:26:26.522Z,22.50
2019-04-10T09:29:16.098Z,21.80
2019-04-10T09:32:04.819Z,23.00
2019-04-10T09:34:54.296Z,23.70
2019-04-10T09:37:43.595Z,23.87
2019-04-10T09:40:33.195Z,23.43
2019-04-10T09:43:23.088Z,23.03
2019-04-10T09:46:12.750Z,29.67
2019-04-10T09:49:02.528Z,21.10
2019-04-10T09:51:51.825Z,21.90
2019-04-10T09:54:40.988Z,20.90
2019-04-10T09:57:30.377Z,20.80
2019-04-10T10:00:21.399Z,28.10
2019-04-10T10:03:11.789Z,21.37
2019-04-10T10:06:01.682Z,23.60
2019-04-10T10:08:50.634Z,25.07
2019-04-10T10:11:39.965Z,28.17
2019-04-10T10:14:31.940Z,25.60
2019-04-10T10:17:20.351Z,29.40
2019-04-10T10:20:11.323Z,24.80
2019-04-10T10:23:01.329Z,24.97
2019-04-10T10:25:51.207Z,24.40
2019-04-10T10:28:40.236Z,22.57
2019-04-10T10:31:30.425Z,24.77
2019-04-10T10:34:20.414Z,26.00
2019-04-10T10:37:10.417Z,21.87
2019-04-10T10:39:59.651Z,25.70
2019-04-10T10:42:48.757Z,23.87
2019-04-10T10:45:38.719Z,23.13
2019-04-10T10:48:28.094Z,26.87
2019-04-10T10:51:18.284Z,24.80
2019-04-10T10:54:08.576Z,20.63
2019-04-10T10:56:58.470Z,27.40
2019-04-10T10:59:47.564Z,23.30
2019-04-10T11:02:36.665Z,26.43
2019-04-10T11:05:25.736Z,27.00
2019-04-10T11:08:15.319Z,22.40
2019-04-10T11:11:04.456Z,25.40
2019-04-10T11:13:54.991Z,25.37
2019-04-10T11:16:45.479Z,24.30
2019-04-10T11:19:35.494Z,23.40
2019-04-10T11:22:26.126Z,27.47
2019-04-10T11:25:16.675Z,25.63
2019-04-10T11:28:05.972Z,24.10
2019-04-10T11:30:56.096Z,21.63
2019-04-10T11:33:49.799Z,20.77
2019-04-10T11:36:36.187Z,23.60
2019-04-10T11:39:28.598Z,21.57
2019-04-10T11:42:16.054Z,19.93
2019-04-10T11:45:08.027Z,20.27
2019-04-10T11:47:58.774Z,21.83
2019-04-10T11:50:48.490Z,19.77
2019-04-10T11:53:41.431Z,22.20
2019-04-10T11:56:29.984Z,24.47
2019-04-10T11:59:21.599Z,19.73
2019-04-10T12:02:10.133Z,21.97
2019-04-10T12:05:07.441Z,26.80
2019-04-10T12:13:30.601Z,22.27
2019-04-10T12:16:19.619Z,21.23
2019-04-10T12:19:08.571Z,24.43
2019-04-10T12:21:58.030Z,24.60
2019-04-10T12:24:49.914Z,23.87
2019-04-10T12:27:39.043Z,31.77
2019-04-10T12:30:28.996Z,27.93
2019-04-10T12:33:17.705Z,26.13
2019-04-10T12:36:10.159Z,23.90
2019-04-10T12:39:00.324Z,25.27
2019-04-10T12:41:50.036Z,26.67
2019-04-10T12:44:39.992Z,26.20
2019-04-10T12:47:30.851Z,22.77
2019-04-10T12:50:20.401Z,24.17
2019-04-10T12:53:09.721Z,29.33
2019-04-10T12:55:58.437Z,32.47
2019-04-10T12:58:47.915Z,25.90
2019-04-10T13:01:38.513Z,26.07
2019-04-10T13:04:28.143Z,25.83
2019-04-10T13:07:17.808Z,35.67
2019-04-10T13:10:08.604Z,22.33
2019-04-10T13:12:58.153Z,21.93
2019-04-10T13:15:47.648Z,23.70
2019-04-10T13:18:36.781Z,23.77
2019-04-10T13:21:26.640Z,21.00
2019-04-10T13:24:15.713Z,25.70
2019-04-10T13:27:06.200Z,22.60
2019-04-10T13:29:54.661Z,23.37
2019-04-10T13:32:44.428Z,24.60
2019-04-10T13:35:34.345Z,33.87
2019-04-10T13:38:29.260Z,25.50
2019-04-10T13:41:14.380Z,27.33
2019-04-10T13:44:02.866Z,29.67
2019-04-10T13:46:51.834Z,28.10
2019-04-10T13:49:42.008Z,24.50
2019-04-10T13:52:32.080Z,28.60
2019-04-10T13:55:21.144Z,24.70
2019-04-10T13:58:10.809Z,25.60
2019-04-10T14:01:00.969Z,22.70
2019-04-10T14:03:50.365Z,21.60
2019-04-10T14:06:39.258Z,27.07
2019-04-10T14:09:31.312Z,21.53
2019-04-10T14:12:07.954Z,27.03
2019-04-10T14:14:57.414Z,23.07
2019-04-10T14:17:46.044Z,25.70
2019-04-10T14:20:35.437Z,23.27
2019-04-10T14:23:28.551Z,27.30
2019-04-10T14:26:45.925Z,22.77
2019-04-10T14:29:25.385Z,26.73
2019-04-10T14:32:24.931Z,21.80
2019-04-10T14:35:14.787Z,30.30
2019-04-10T14:38:04.745Z,27.17
2019-04-10T14:40:54.191Z,23.90
2019-04-10T14:43:45.166Z,27.43
2019-04-10T14:46:35.956Z,31.40
2019-04-10T14:49:27.151Z,26.30
2019-04-10T14:52:16.953Z,25.77
2019-04-10T14:55:06.204Z,23.53
2019-04-10T14:57:55.267Z,26.00
2019-04-10T15:00:49.582Z,26.57
2019-04-10T15:03:40.285Z,23.27
2019-04-10T15:06:29.578Z,22.07
2019-04-10T15:09:25.587Z,26.10
2019-04-10T15:12:14.360Z,22.37
2019-04-10T15:15:04.348Z,23.43
2019-04-10T15:17:54.151Z,21.03
2019-04-10T15:20:43.668Z,21.50
2019-04-10T15:23:33.648Z,22.53
2019-04-10T15:26:23.958Z,24.23
2019-04-10T15:29:14.238Z,23.10
2019-04-10T15:32:04.222Z,20.57
2019-04-10T15:34:53.675Z,21.13
2019-04-10T15:37:42.884Z,26.07
2019-04-10T15:40:32.339Z,19.67
2019-04-10T15:43:23.581Z,21.57
2019-04-10T15:46:12.905Z,23.07
2019-04-10T15:49:02.951Z,24.93
2019-04-10T15:51:53.333Z,19.60
2019-04-10T15:54:42.425Z,21.10
2019-04-10T15:57:44.072Z,28.10
2019-04-10T16:00:23.254Z,17.60
2019-04-10T16:03:11.900Z,19.43
2019-04-10T16:06:01.409Z,20.10
2019-04-10T16:08:50.835Z,23.10
2019-04-10T16:11:50.342Z,21.73
2019-04-10T16:14:40.029Z,17.17
2019-04-10T16:17:39.981Z,18.27
2019-04-10T16:20:30.898Z,17.47
2019-04-10T16:23:30.011Z,17.67
2019-04-10T16:26:19.504Z,21.10
2019-04-10T16:29:09.609Z,17.93
2019-04-10T16:32:00.007Z,14.70
2019-04-10T16:34:49.108Z,14.83
2019-04-10T16:37:40.474Z,21.53
2019-04-10T16:40:30.049Z,15.97
2019-04-10T16:43:20.196Z,16.70
2019-04-10T16:46:09.717Z,18.90
2019-04-10T16:49:00.223Z,19.60
2019-04-10T16:51:50.410Z,14.57
2019-04-10T16:54:40.980Z,16.23
2019-04-10T16:57:29.703Z,18.97
2019-04-10T17:00:20.682Z,15.53
2019-04-10T17:03:11.485Z,15.97
2019-04-10T17:06:00.487Z,21.70
2019-04-10T17:08:49.748Z,16.20
2019-04-10T17:11:39.460Z,15.90
2019-04-10T17:14:29.395Z,17.90
2019-04-10T17:17:20.171Z,14.00
2019-04-10T17:20:09.906Z,20.17
2019-04-10T17:23:00.307Z,15.13
2019-04-10T17:25:38.016Z,18.53
2019-04-10T17:28:28.204Z,13.17
2019-04-10T17:31:18.222Z,17.13
2019-04-10T17:33:58.676Z,14.70
2019-04-10T17:36:49.477Z,13.97
2019-04-10T17:39:39.727Z,13.83
2019-04-10T17:42:30.416Z,15.30
2019-04-10T17:45:20.639Z,15.90
2019-04-10T17:48:10.064Z,15.93
2019-04-10T17:50:59.537Z,15.83
2019-04-10T17:53:49.553Z,14.23
2019-04-10T17:56:39.953Z,14.30
2019-04-10T17:59:30.120Z,13.07
2019-04-10T18:02:21.217Z,15.30
2019-04-10T18:05:10.590Z,14.20
2019-04-10T18:08:00.718Z,14.57
2019-04-10T18:10:52.534Z,15.13
2019-04-10T18:13:39.737Z,15.60
2019-04-10T18:16:29.656Z,14.53
2019-04-10T18:19:19.128Z,14.43
2019-04-10T18:22:08.128Z,15.20
2019-04-10T18:24:57.786Z,12.10
2019-04-10T18:27:47.377Z,13.83
2019-04-10T18:30:37.143Z,14.27
2019-04-10T18:33:26.544Z,14.50
2019-04-10T18:36:15.875Z,15.40
2019-04-10T18:39:11.372Z,14.20
2019-04-10T18:41:59.785Z,14.93
2019-04-10T18:44:49.074Z,14.13
2019-04-10T18:47:39.333Z,17.47
2019-04-10T18:50:28.651Z,17.80
2019-04-10T18:53:19.187Z,12.83
2019-04-10T18:55:49.882Z,15.30
2019-04-10T18:58:46.342Z,12.50
2019-04-10T19:01:43.262Z,13.93
2019-04-10T19:04:43.394Z,12.97
2019-04-10T19:07:32.726Z,14.63
2019-04-10T19:10:22.145Z,16.20
2019-04-10T19:13:11.540Z,12.60
2019-04-10T19:16:01.366Z,13.17
2019-04-10T19:18:52.258Z,12.90
2019-04-10T19:21:42.148Z,16.10
2019-04-10T19:24:32.346Z,14.73
2019-04-10T19:27:22.202Z,12.80
2019-04-10T19:30:32.070Z,13.47
2019-04-10T19:33:21.700Z,13.20
2019-04-10T19:36:11.956Z,11.90
2019-04-10T19:39:02.102Z,16.67
2019-04-10T19:41:51.613Z,19.40
2019-04-10T19:44:41.397Z,14.40
2019-04-10T19:47:30.696Z,15.23
2019-04-10T19:50:20.000Z,14.17
2019-04-10T19:53:09.171Z,18.03
2019-04-10T19:55:40.042Z,14.83
2019-04-10T19:58:30.187Z,14.90
2019-04-10T20:01:19.184Z,14.30
2019-04-10T20:04:08.283Z,14.30
2019-04-10T20:07:00.594Z,12.90
2019-04-10T20:09:49.591Z,15.40
2019-04-10T20:12:38.797Z,12.33
2019-04-10T20:15:28.843Z,14.10
2019-04-10T20:18:18.881Z,13.83
2019-04-10T20:21:07.973Z,11.90
2019-04-10T20:23:58.475Z,10.93
2019-04-10T20:26:49.577Z,11.53
2019-04-10T20:29:39.326Z,12.00
2019-04-10T20:32:30.073Z,11.70
2019-04-10T20:35:20.264Z,14.40
2019-04-10T20:38:09.343Z,10.70
2019-04-10T20:41:00.331Z,11.20
2019-04-10T20:43:48.744Z,10.63
2019-04-10T20:46:38.212Z,9.67
2019-04-10T20:49:28.060Z,11.10
2019-04-10T20:52:17.932Z,14.20
2019-04-10T20:55:09.114Z,11.00
2019-04-10T20:57:59.686Z,11.40
2019-04-10T21:00:49.819Z,9.20
2019-04-10T21:03:40.129Z,12.83
2019-04-10T21:06:29.623Z,10.30
2019-04-10T21:09:19.135Z,10.30
2019-04-10T21:12:13.001Z,12.53
2019-04-10T21:14:41.100Z,12.20
2019-04-10T21:17:14.303Z,12.00
2019-04-10T21:19:45.437Z,10.30
2019-04-10T21:22:17.320Z,11.73
2019-04-10T21:24:49.946Z,16.47
2019-04-10T21:27:39.782Z,12.77
2019-04-10T21:31:00.768Z,11.00
2019-04-10T21:34:07.704Z,12.27
2019-04-10T21:36:57.514Z,10.30
2019-04-10T21:39:47.156Z,15.60
2019-04-10T21:42:37.044Z,10.27
2019-04-10T21:45:26.528Z,12.30
2019-04-10T21:48:16.784Z,10.27
2019-04-10T21:51:06.703Z,9.23
2019-04-10T21:53:56.217Z,12.17
2019-04-10T21:56:45.377Z,9.67
2019-04-10T21:59:34.623Z,11.37
2019-04-10T22:02:23.890Z,12.50
2019-04-10T22:05:14.235Z,11.23
2019-04-10T22:08:21.899Z,9.10
2019-04-10T22:11:10.589Z,11.20
2019-04-10T22:14:00.445Z,9.03
2019-04-10T22:16:50.537Z,11.47
2019-04-10T22:19:40.917Z,8.87
2019-04-10T22:22:30.929Z,12.17
2019-04-10T22:25:19.520Z,11.60
2019-04-10T22:28:08.822Z,12.50
2019-04-10T22:30:58.102Z,8.90
2019-04-10T22:33:46.811Z,10.33
2019-04-10T22:36:35.820Z,9.57
2019-04-10T22:39:25.423Z,10.33
2019-04-10T22:42:16.540Z,9.00
2019-04-10T22:45:08.324Z,10.90
2019-04-10T22:47:39.251Z,19.67
2019-04-10T22:50:29.036Z,13.03
2019-04-10T22:53:19.241Z,9.17
2019-04-10T22:56:09.142Z,8.13
2019-04-10T22:58:58.267Z,9.30
2019-04-10T23:01:59.427Z,9.93
2019-04-10T23:04:39.169Z,10.43
2019-04-10T23:07:28.304Z,12.10
2019-04-10T23:10:17.167Z,8.60
2019-04-10T23:13:07.532Z,11.17
2019-04-10T23:15:57.748Z,13.03
2019-04-10T23:18:47.787Z,9.57
2019-04-10T23:21:36.798Z,8.60
2019-04-10T23:24:26.234Z,8.83
2019-04-10T23:27:15.619Z,13.00
2019-04-10T23:30:06.538Z,10.07
2019-04-10T23:32:55.445Z,10.00
2019-04-10T23:35:45.434Z,10.03
2019-04-10T23:38:35.327Z,12.87
2019-04-10T23:41:25.445Z,10.50
2019-04-10T23:43:55.824Z,10.13
2019-04-10T23:46:45.448Z,9.73
2019-04-10T23:49:35.358Z,8.90
2019-04-10T23:52:25.316Z,10.93
2019-04-10T23:55:15.547Z,11.27
2019-04-10T23:58:05.510Z,9.43
